Destinations Cologne Bonn Airport

Cologne Bonn Airport (EDDK / CGN)

Flights to Cologne Bonn Airport

Flight number From ETE Dispatch
SPY-104 EHGG Groningen Airport Eelde 01:05
SPY-2406 EGPH Edinburgh Airport 01:50

Flights from Cologne Bonn Airport

Flight number To ETE Dispatch
SPY-105 EHGG Groningen Airport Eelde
SPY-2407 EGPH Edinburgh Airport 01:50
About

Cologne Bonn Airport facts

Cologne Bonn Airport is located in Cologne at an elevation of 92.0 meters or 302 feet.

Currently, Speedy Airlines serves 4 flights to and from Cologne Bonn Airport.

Detailed airport info

Route map

Weather

Current weather

METAR

METAR

Metar data retrieved Sunday, 21 July 2024 at 19:25 UTC

EDDK 211850Z AUTO 33007KT 9999 SCT029 23/18 Q1011 NOSIG
Wind Temperature
7 kt 23c